Time;durP1;ratioP1;P1;durP2;ratioP2;P2;SDS_P1;SDS_P2;PMS_P1;PMS_P2;Temp;Humidity;BMP_temperature;BMP_pressure;BME280_temperature;BME280_humidity;BME280_pressure;Samples;Min_cycle;Max_cycle;Signal;HPM_P1;HPM_P2
2022/09/25 00:02:40;;;;;;;;;;;22.60;47.90;21.40;101015.00;;;;5100784;27;19923;-70
2022/09/25 00:05:26;;;;;;;;;;;22.60;47.90;21.40;101028.00;;;;5095184;28;19922;-70
2022/09/25 00:08:12;;;;;;;;;;;22.60;47.90;21.40;101021.00;;;;5098039;28;19912;-70
2022/09/25 00:10:58;;;;;;;;;;;22.60;47.90;21.40;101022.00;;;;5094100;28;19950;-71
2022/09/25 00:13:44;;;;;;;;;;;22.60;47.90;21.30;101025.00;;;;5103806;27;19916;-70
2022/09/25 00:16:31;;;;;;;;;;;22.60;47.90;21.30;101026.00;;;;5095192;27;19971;-70
2022/09/25 00:22:25;;;;;;;;;;;22.50;47.90;21.30;101023.00;;;;5083868;27;20004;-70
2022/09/25 00:25:14;;;;;;;;;;;22.50;47.90;21.30;101031.00;;;;5103881;27;19912;-70
2022/09/25 00:28:01;;;;;;;;;;;22.60;48.00;21.30;101028.00;;;;5092558;27;19919;-70
2022/09/25 00:30:47;;;;;;;;;;;22.60;48.70;21.30;101028.00;;;;5105572;27;20390;-70
2022/09/25 00:33:33;;;;;;;;;;;22.50;48.00;21.30;101032.00;;;;5103412;27;19931;-71
2022/09/25 00:36:19;;;;;;;;;;;22.60;48.00;21.30;101032.00;;;;5085748;27;19943;-71
2022/09/25 00:39:05;;;;;;;;;;;22.50;48.00;21.30;101033.00;;;;5100186;27;19915;-71
2022/09/25 00:41:51;;;;;;;;;;;22.60;48.10;21.30;101028.00;;;;5094261;27;19919;-71
2022/09/25 00:44:55;;;;;;;;;;;22.50;48.10;21.30;101027.00;;;;5110600;27;19922;-71
2022/09/25 00:47:43;;;;;;;;;;;22.50;48.00;21.30;101029.00;;;;5097034;27;19916;-70
2022/09/25 00:50:38;;;;;;;;;;;22.50;48.00;21.30;101030.00;;;;5077134;28;20254;-70
2022/09/25 00:53:32;;;;;;;;;;;22.50;48.00;21.30;101029.00;;;;5088417;28;19926;-70
2022/09/25 00:56:18;;;;;;;;;;;22.60;48.00;21.30;101029.00;;;;5093441;27;19919;-70
2022/09/25 00:59:04;;;;;;;;;;;22.60;48.00;21.30;101026.00;;;;5102459;27;19926;-70
2022/09/25 01:01:50;;;;;;;;;;;22.40;47.90;21.30;101032.00;;;;5085396;28;20002;-71
2022/09/25 01:04:36;;;;;;;;;;;22.50;48.00;21.30;101031.00;;;;5091515;27;19969;-70
2022/09/25 01:07:22;;;;;;;;;;;22.40;47.90;21.30;101035.00;;;;5095904;27;19922;-70
2022/09/25 01:10:09;;;;;;;;;;;22.50;48.00;21.30;101038.00;;;;5088989;27;19912;-70
2022/09/25 01:12:55;;;;;;;;;;;22.50;48.00;21.30;101035.00;;;;5093507;27;19919;-70
2022/09/25 01:15:57;;;;;;;;;;;22.50;48.00;21.30;101033.00;;;;5096575;27;19978;-71
2022/09/25 01:18:49;;;;;;;;;;;22.50;48.00;21.30;101031.00;;;;5092119;28;19934;-70
2022/09/25 01:21:38;;;;;;;;;;;22.50;48.00;21.30;101032.00;;;;5094185;27;19915;-70
2022/09/25 01:24:58;;;;;;;;;;;22.50;48.10;21.30;101032.00;;;;5069832;28;19912;-70
2022/09/25 01:28:05;;;;;;;;;;;22.50;48.00;21.30;101031.00;;;;5096472;28;19954;-70
2022/09/25 01:30:53;;;;;;;;;;;22.50;48.00;21.30;101029.00;;;;5102262;27;19916;-70
2022/09/25 01:33:53;;;;;;;;;;;22.50;48.00;21.30;101029.00;;;;5111060;27;19920;-70
2022/09/25 01:36:43;;;;;;;;;;;22.50;48.10;21.30;101027.00;;;;5083197;28;20321;-70
2022/09/25 01:39:31;;;;;;;;;;;22.50;48.00;21.30;101023.00;;;;5094573;28;19923;-70
2022/09/25 01:42:19;;;;;;;;;;;22.50;48.00;21.30;101030.00;;;;5074652;28;19923;-70
2022/09/25 01:45:07;;;;;;;;;;;22.60;48.00;21.30;101039.00;;;;5083446;28;20443;-70
2022/09/25 01:47:53;;;;;;;;;;;22.50;48.50;21.30;101034.00;;;;5087653;27;19919;-70
2022/09/25 01:50:43;;;;;;;;;;;22.60;48.00;21.30;101033.00;;;;5084980;27;19912;-70
2022/09/25 01:53:32;;;;;;;;;;;22.50;48.00;21.30;101035.00;;;;5092189;28;20010;-71
2022/09/25 01:56:32;;;;;;;;;;;22.50;48.00;21.30;101029.00;;;;5094662;27;19912;-71
2022/09/25 01:59:29;;;;;;;;;;;22.50;48.00;21.30;101031.00;;;;5083344;28;19960;-70
2022/09/25 02:02:18;;;;;;;;;;;22.50;48.00;21.30;101041.00;;;;5093356;28;20361;-70
2022/09/25 02:05:08;;;;;;;;;;;22.40;48.00;21.30;101034.00;;;;5090986;27;19951;-70
2022/09/25 02:07:59;;;;;;;;;;;22.50;48.00;21.30;101029.00;;;;5085904;27;19912;-70
2022/09/25 02:10:48;;;;;;;;;;;22.50;48.00;21.30;101034.00;;;;5098726;27;20361;-71
2022/09/25 02:13:49;;;;;;;;;;;22.40;48.00;21.20;101039.00;;;;5101323;27;19916;-71
2022/09/25 02:16:36;;;;;;;;;;;22.50;48.00;21.30;101038.00;;;;5092875;27;19915;-71
2022/09/25 02:22:29;;;;;;;;;;;22.40;47.90;21.20;101048.00;;;;5100002;27;19916;-70
2022/09/25 02:25:19;;;;;;;;;;;22.40;47.90;21.20;101049.00;;;;5089460;27;19919;-71
2022/09/25 02:28:05;;;;;;;;;;;22.50;48.00;21.20;101045.00;;;;5096778;27;19915;-71
2022/09/25 02:30:52;;;;;;;;;;;22.40;47.90;21.20;101046.00;;;;5092558;27;19923;-70
2022/09/25 02:33:38;;;;;;;;;;;22.40;47.90;21.20;101047.00;;;;5087319;27;19927;-70
2022/09/25 02:36:24;;;;;;;;;;;22.40;47.90;21.20;101040.00;;;;5082941;28;19965;-71
2022/09/25 02:39:10;;;;;;;;;;;22.40;47.90;21.20;101038.00;;;;5092480;28;20383;-71
2022/09/25 02:42:03;;;;;;;;;;;22.40;47.90;21.20;101048.00;;;;5112522;27;20221;-70
2022/09/25 02:45:08;;;;;;;;;;;22.40;48.00;21.20;101040.00;;;;5079809;28;19923;-70
2022/09/25 02:48:13;;;;;;;;;;;22.40;47.90;21.20;101042.00;;;;5087701;28;19916;-70
2022/09/25 02:51:26;;;;;;;;;;;22.40;48.00;21.20;101037.00;;;;5100162;28;20035;-70
2022/09/25 02:54:19;;;;;;;;;;;22.40;48.00;21.20;101048.00;;;;5054271;28;20369;-70
2022/09/25 02:57:32;;;;;;;;;;;22.40;48.00;21.20;101037.00;;;;5101518;27;20321;-70
2022/09/25 03:00:21;;;;;;;;;;;22.40;48.00;21.20;101034.00;;;;5083175;28;19934;-71
2022/09/25 03:03:08;;;;;;;;;;;22.40;48.00;21.20;101036.00;;;;5091323;27;20029;-71
2022/09/25 03:05:55;;;;;;;;;;;22.30;47.90;21.10;101036.00;;;;5098595;27;19929;-70
2022/09/25 03:08:45;;;;;;;;;;;22.40;48.00;21.20;101026.00;;;;5082415;28;20440;-70
2022/09/25 03:11:32;;;;;;;;;;;22.30;47.90;21.10;101029.00;;;;5086217;28;19974;-70
2022/09/25 03:14:18;;;;;;;;;;;22.30;47.90;21.10;101029.00;;;;5087615;28;19912;-70
2022/09/25 03:17:04;;;;;;;;;;;22.30;47.90;21.10;101025.00;;;;5093912;28;19965;-70
2022/09/25 03:19:50;;;;;;;;;;;22.30;47.90;21.10;101029.00;;;;5102731;28;19912;-70
2022/09/25 03:22:36;;;;;;;;;;;22.30;47.90;21.10;101021.00;;;;5100436;28;19927;-70
2022/09/25 03:25:22;;;;;;;;;;;22.30;48.00;21.10;101022.00;;;;5090212;28;20353;-70
2022/09/25 03:28:09;;;;;;;;;;;22.30;47.90;21.10;101022.00;;;;5087100;28;19912;-70
2022/09/25 03:30:59;;;;;;;;;;;22.30;47.90;21.10;101029.00;;;;5085885;28;19919;-70
2022/09/25 03:33:46;;;;;;;;;;;22.30;47.80;21.10;101032.00;;;;5107036;28;19959;-70
2022/09/25 03:36:33;;;;;;;;;;;22.30;47.80;21.10;101026.00;;;;5093130;28;19923;-70
2022/09/25 03:39:19;;;;;;;;;;;22.30;48.60;21.10;101019.00;;;;5100965;28;19944;-70
2022/09/25 03:42:05;;;;;;;;;;;22.30;47.80;21.10;101025.00;;;;5092069;28;19919;-70
2022/09/25 03:44:51;;;;;;;;;;;22.30;47.90;21.10;101028.00;;;;5103674;28;20272;-70
2022/09/25 03:47:37;;;;;;;;;;;22.30;47.80;21.10;101017.00;;;;5099663;28;19920;-70
2022/09/25 03:50:23;;;;;;;;;;;22.20;47.80;21.10;101019.00;;;;5092657;28;20293;-70
2022/09/25 03:53:09;;;;;;;;;;;22.30;47.90;21.10;101009.00;;;;5096602;28;20369;-70
2022/09/25 03:55:56;;;;;;;;;;;22.20;47.80;21.10;101011.00;;;;5108788;28;19926;-71
2022/09/25 03:58:42;;;;;;;;;;;22.20;47.80;21.10;101006.00;;;;5100160;28;19922;-70
2022/09/25 04:01:28;;;;;;;;;;;22.20;47.80;21.00;101005.00;;;;5091146;28;19915;-71
2022/09/25 04:04:14;;;;;;;;;;;22.20;47.80;21.00;101008.00;;;;5092490;28;20365;-70
2022/09/25 04:07:00;;;;;;;;;;;22.20;47.70;21.00;101008.00;;;;5095634;28;19916;-70
2022/09/25 04:09:46;;;;;;;;;;;22.20;47.70;21.00;101012.00;;;;5095858;28;19923;-71
2022/09/25 04:12:32;;;;;;;;;;;22.20;47.70;21.00;101004.00;;;;5099035;27;19961;-70
2022/09/25 04:15:18;;;;;;;;;;;22.20;48.40;21.00;101013.00;;;;5095878;27;19918;-71
2022/09/25 04:18:04;;;;;;;;;;;22.20;47.70;21.00;101009.00;;;;5094915;27;19912;-71
2022/09/25 04:20:50;;;;;;;;;;;22.20;47.70;21.00;100995.00;;;;5099861;27;19954;-70
2022/09/25 04:23:37;;;;;;;;;;;22.20;47.70;21.00;101002.00;;;;5097257;27;19924;-71
2022/09/25 04:26:23;;;;;;;;;;;22.20;47.70;21.00;101005.00;;;;5099743;27;19915;-70
2022/09/25 04:29:08;;;;;;;;;;;22.20;47.70;21.00;101002.00;;;;5104744;27;19915;-70
2022/09/25 04:34:59;;;;;;;;;;;22.20;47.70;21.00;101005.00;;;;5106076;27;20457;-70
2022/09/25 04:37:45;;;;;;;;;;;22.20;47.70;21.00;101007.00;;;;5089634;27;19915;-71
2022/09/25 04:40:32;;;;;;;;;;;22.20;47.70;21.00;101009.00;;;;5095414;28;20322;-70
2022/09/25 04:43:18;;;;;;;;;;;22.10;48.00;21.00;101011.00;;;;5092928;28;19920;-70
2022/09/25 04:46:05;;;;;;;;;;;22.10;47.60;21.00;101014.00;;;;5096201;28;19915;-70
2022/09/25 04:48:51;;;;;;;;;;;22.10;47.60;20.90;101013.00;;;;5078635;28;19962;-69
2022/09/25 04:51:37;;;;;;;;;;;22.10;47.60;20.90;101014.00;;;;5098632;28;19943;-70
2022/09/25 04:54:23;;;;;;;;;;;22.10;47.60;20.90;101013.00;;;;5096587;28;19916;-70
2022/09/25 04:57:10;;;;;;;;;;;22.10;47.60;20.90;101018.00;;;;5090874;28;19923;-69
2022/09/25 04:59:56;;;;;;;;;;;22.10;47.60;20.90;101015.00;;;;5098450;28;19912;-70
2022/09/25 05:02:42;;;;;;;;;;;22.10;47.50;20.90;101021.00;;;;5091562;28;20006;-69
2022/09/25 05:05:29;;;;;;;;;;;22.10;48.30;20.90;101023.00;;;;5095440;28;19915;-70
2022/09/25 05:08:15;;;;;;;;;;;22.10;47.60;20.90;101014.00;;;;5094807;28;20315;-73
2022/09/25 05:11:02;;;;;;;;;;;22.10;47.60;20.90;101015.00;;;;5090717;28;20592;-69
2022/09/25 05:13:50;;;;;;;;;;;22.10;47.50;20.90;101019.00;;;;5094211;28;20022;-69
2022/09/25 05:16:36;;;;;;;;;;;22.10;47.60;20.90;101023.00;;;;5088378;28;19959;-71
2022/09/25 05:19:22;;;;;;;;;;;22.10;47.50;20.90;101018.00;;;;5084892;28;19920;-71
2022/09/25 05:22:08;;;;;;;;;;;22.10;48.20;20.90;101023.00;;;;5094161;27;19911;-72
2022/09/25 05:24:54;;;;;;;;;;;22.10;47.50;20.90;101027.00;;;;5097595;27;20376;-72
2022/09/25 05:27:40;;;;;;;;;;;22.10;47.50;20.90;101031.00;;;;5093277;28;19956;-72
2022/09/25 05:30:33;;;;;;;;;;;22.10;47.50;20.90;101024.00;;;;5089676;27;19919;-72
2022/09/25 05:33:19;;;;;;;;;;;22.10;47.50;20.90;101021.00;;;;5091204;28;19927;-72
2022/09/25 05:36:05;;;;;;;;;;;22.00;47.50;20.90;101022.00;;;;5092057;28;20282;-72
2022/09/25 05:38:52;;;;;;;;;;;22.00;47.40;20.90;101014.00;;;;5092225;28;20379;-72
2022/09/25 05:41:38;;;;;;;;;;;22.10;47.50;20.90;101012.00;;;;5094354;28;19916;-72
2022/09/25 05:44:27;;;;;;;;;;;22.00;47.40;20.90;101012.00;;;;5095181;27;19960;-72
2022/09/25 05:47:13;;;;;;;;;;;22.00;47.40;20.90;101019.00;;;;5090503;28;19918;-72
2022/09/25 05:49:59;;;;;;;;;;;22.00;48.10;20.90;101018.00;;;;5095656;27;19915;-72
2022/09/25 05:52:45;;;;;;;;;;;22.00;47.40;20.90;101019.00;;;;5095173;28;19920;-72
2022/09/25 05:55:31;;;;;;;;;;;22.00;47.40;20.90;101020.00;;;;5091154;28;19930;-71
2022/09/25 05:58:17;;;;;;;;;;;22.00;47.40;20.80;101022.00;;;;5096849;27;20001;-71
2022/09/25 06:01:04;;;;;;;;;;;22.00;47.40;20.80;101013.00;;;;5094803;27;19995;-72
2022/09/25 06:03:50;;;;;;;;;;;22.00;47.40;20.80;101015.00;;;;5099401;28;20383;-72
2022/09/25 06:06:36;;;;;;;;;;;22.00;47.40;20.80;101024.00;;;;5097729;28;20372;-72
2022/09/25 06:09:22;;;;;;;;;;;22.00;47.30;20.80;101013.00;;;;5092994;27;19913;-72
2022/09/25 06:12:08;;;;;;;;;;;22.00;47.40;20.80;101021.00;;;;5094384;28;20379;-72
2022/09/25 06:14:54;;;;;;;;;;;22.00;47.30;20.80;101024.00;;;;5093597;27;19923;-71
2022/09/25 06:17:40;;;;;;;;;;;21.90;47.30;20.80;101026.00;;;;5092832;27;19922;-71
2022/09/25 06:20:26;;;;;;;;;;;21.90;47.30;20.80;101016.00;;;;5097131;27;19923;-71
2022/09/25 06:23:12;;;;;;;;;;;22.00;47.30;20.80;101016.00;;;;5090989;28;19912;-71
2022/09/25 06:26:03;;;;;;;;;;;22.00;47.30;20.80;101014.00;;;;5089267;28;19924;-72
2022/09/25 06:28:49;;;;;;;;;;;22.00;47.30;20.80;101020.00;;;;5101856;27;19923;-72
2022/09/25 06:31:38;;;;;;;;;;;21.90;47.30;20.80;101016.00;;;;5095803;28;19923;-70
2022/09/25 06:34:24;;;;;;;;;;;22.00;47.30;20.80;101020.00;;;;5092865;27;19958;-70
2022/09/25 06:37:10;;;;;;;;;;;22.00;47.30;20.80;101028.00;;;;5098477;27;19923;-70
2022/09/25 06:39:56;;;;;;;;;;;22.00;47.30;20.80;101026.00;;;;5090638;28;19916;-70
2022/09/25 06:42:44;;;;;;;;;;;22.00;47.30;20.80;101024.00;;;;5091008;28;19915;-70
2022/09/25 06:45:35;;;;;;;;;;;22.00;47.30;20.80;101030.00;;;;5087405;27;19923;-70
2022/09/25 06:48:21;;;;;;;;;;;22.00;47.30;20.80;101029.00;;;;5094224;28;20042;-71
2022/09/25 06:51:08;;;;;;;;;;;22.00;47.20;20.70;101030.00;;;;5096948;27;19919;-71
2022/09/25 06:53:54;;;;;;;;;;;22.00;47.10;20.60;101034.00;;;;5096494;28;20016;-71
2022/09/25 06:56:40;;;;;;;;;;;22.00;47.00;20.60;101030.00;;;;5091208;27;20473;-70
2022/09/25 06:59:26;;;;;;;;;;;21.90;46.90;20.50;101038.00;;;;5090356;27;20261;-70
2022/09/25 07:05:17;;;;;;;;;;;21.90;47.10;20.60;101025.00;;;;5096514;28;19919;-70
2022/09/25 07:08:03;;;;;;;;;;;21.80;47.00;20.60;101029.00;;;;5095839;27;19912;-70
2022/09/25 07:10:51;;;;;;;;;;;21.80;47.10;20.50;101032.00;;;;5095048;28;19923;-70
2022/09/25 07:13:38;;;;;;;;;;;21.80;47.00;20.50;101029.00;;;;5078369;28;20018;-70
2022/09/25 07:16:28;;;;;;;;;;;21.80;47.00;20.50;101033.00;;;;5096722;28;19989;-71
2022/09/25 07:19:14;;;;;;;;;;;21.80;47.10;20.40;101025.00;;;;5078554;28;19919;-70
2022/09/25 07:22:00;;;;;;;;;;;21.70;47.10;20.40;101031.00;;;;5091410;28;19923;-71
2022/09/25 07:24:46;;;;;;;;;;;21.70;47.10;20.40;101037.00;;;;5090053;28;19916;-71
2022/09/25 07:27:32;;;;;;;;;;;21.70;47.10;20.40;101036.00;;;;5091846;28;19912;-70
2022/09/25 07:30:18;;;;;;;;;;;21.70;47.10;20.40;101035.00;;;;5091701;28;19912;-70
2022/09/25 07:33:04;;;;;;;;;;;21.70;47.10;20.30;101034.00;;;;5102927;28;19915;-70
2022/09/25 07:35:53;;;;;;;;;;;21.70;47.20;20.30;101039.00;;;;5092474;28;20292;-70
2022/09/25 07:38:40;;;;;;;;;;;21.70;47.20;20.30;101039.00;;;;5078515;28;20337;-71
2022/09/25 07:41:25;;;;;;;;;;;21.60;47.10;20.40;101046.00;;;;5103104;28;20010;-70
2022/09/25 07:44:12;;;;;;;;;;;21.60;47.10;20.30;101042.00;;;;5097678;28;20357;-70
2022/09/25 07:47:00;;;;;;;;;;;21.60;47.10;20.30;101049.00;;;;5099921;27;19920;-70
2022/09/25 07:49:46;;;;;;;;;;;21.60;47.20;20.30;101032.00;;;;5095948;27;19919;-71
2022/09/25 07:52:32;;;;;;;;;;;21.60;47.10;20.30;101043.00;;;;5097647;27;20053;-70
2022/09/25 07:55:18;;;;;;;;;;;21.60;47.10;20.30;101054.00;;;;5092712;27;19916;-70
2022/09/25 07:58:04;;;;;;;;;;;21.60;47.10;20.30;101044.00;;;;5094419;27;19961;-70
2022/09/25 08:00:50;;;;;;;;;;;21.60;47.10;20.20;101034.00;;;;5102487;27;20356;-69
2022/09/25 08:03:36;;;;;;;;;;;21.60;47.10;20.20;101042.00;;;;5096037;27;19961;-69
2022/09/25 08:06:22;;;;;;;;;;;21.60;47.10;20.20;101040.00;;;;5099855;27;20345;-78
2022/09/25 08:09:09;;;;;;;;;;;21.60;47.20;20.30;101054.00;;;;5100051;27;19912;-69
2022/09/25 08:11:55;;;;;;;;;;;21.60;47.20;20.30;101044.00;;;;5103322;27;19919;-69
2022/09/25 08:14:41;;;;;;;;;;;21.60;47.20;20.30;101049.00;;;;5096437;27;19922;-69
2022/09/25 08:17:30;;;;;;;;;;;21.60;47.20;20.40;101050.00;;;;5094673;27;19915;-69
2022/09/25 08:20:16;;;;;;;;;;;21.60;47.30;20.40;101043.00;;;;5101004;27;19923;-68
2022/09/25 08:23:02;;;;;;;;;;;21.60;47.30;20.50;101049.00;;;;5091035;27;19916;-68
2022/09/25 08:25:48;;;;;;;;;;;21.70;47.40;20.50;101050.00;;;;5104114;27;20289;-69
2022/09/25 08:28:34;;;;;;;;;;;21.70;47.40;20.50;101051.00;;;;5096002;28;19919;-69
2022/09/25 08:31:20;;;;;;;;;;;21.70;47.30;20.60;101051.00;;;;5097559;27;19915;-69
2022/09/25 08:34:09;;;;;;;;;;;21.80;47.30;20.60;101050.00;;;;5104623;27;19966;-69
2022/09/25 08:36:55;;;;;;;;;;;21.80;47.30;20.60;101043.00;;;;5106880;27;19955;-69
2022/09/25 08:39:41;;;;;;;;;;;21.80;47.30;20.60;101045.00;;;;5103403;27;19927;-69
2022/09/25 08:42:34;;;;;;;;;;;21.90;47.30;20.70;101046.00;;;;5078972;28;19962;-69
2022/09/25 08:51:47;;;;;;;;;;;22.00;47.30;20.70;101038.00;;;;5096094;27;19930;-69
2022/09/25 08:54:33;;;;;;;;;;;22.00;47.30;20.70;101035.00;;;;5101240;27;19927;-69
2022/09/25 08:57:42;;;;;;;;;;;22.00;47.30;20.80;101035.00;;;;5094927;27;19923;-69
2022/09/25 09:00:29;;;;;;;;;;;22.00;47.90;20.80;101036.00;;;;5107459;27;19959;-69
2022/09/25 09:03:15;;;;;;;;;;;22.10;47.30;20.80;101041.00;;;;5102370;27;19920;-69
2022/09/25 09:06:04;;;;;;;;;;;22.10;47.20;20.80;101035.00;;;;5107789;27;19918;-69
2022/09/25 09:08:57;;;;;;;;;;;22.20;47.30;20.80;101037.00;;;;5102754;27;20390;-69
2022/09/25 09:11:46;;;;;;;;;;;22.10;47.20;20.80;101036.00;;;;5095418;27;19920;-69
2022/09/25 09:14:37;;;;;;;;;;;22.10;47.20;20.80;101049.00;;;;5098850;27;19919;-69
2022/09/25 09:17:24;;;;;;;;;;;22.10;47.20;20.90;101041.00;;;;5105221;27;19939;-69
2022/09/25 09:20:18;;;;;;;;;;;22.10;47.10;20.90;101041.00;;;;5097140;27;19923;-69
2022/09/25 09:23:04;;;;;;;;;;;22.20;47.20;20.90;101030.00;;;;5081694;27;19911;-70
2022/09/25 09:25:59;;;;;;;;;;;22.20;47.10;20.90;101042.00;;;;5084948;27;19911;-71
2022/09/25 09:29:07;;;;;;;;;;;22.20;47.10;20.90;101036.00;;;;5092860;27;20326;-69
2022/09/25 09:32:17;;;;;;;;;;;22.20;47.20;20.90;101034.00;;;;5102131;27;19920;-74
2022/09/25 09:35:48;;;;;;;;;;;22.20;47.10;20.90;101034.00;;;;5099073;27;20274;-77
2022/09/25 09:38:49;;;;;;;;;;;22.20;47.10;20.90;101033.00;;;;5097903;28;19912;-70
2022/09/25 09:41:38;;;;;;;;;;;22.20;47.10;20.90;101034.00;;;;5082527;27;20018;-71
2022/09/25 09:44:56;;;;;;;;;;;22.20;47.10;20.90;101030.00;;;;5096366;27;19919;-71
2022/09/25 09:47:49;;;;;;;;;;;22.20;47.10;20.90;101037.00;;;;5099756;27;19916;-71
2022/09/25 09:50:55;;;;;;;;;;;22.20;47.10;20.90;101035.00;;;;5100684;28;20306;-71
2022/09/25 09:53:45;;;;;;;;;;;22.20;47.10;20.90;101030.00;;;;5109674;27;19927;-71
2022/09/25 09:56:31;;;;;;;;;;;22.20;47.10;20.90;101028.00;;;;5090100;27;19989;-71
2022/09/25 10:00:00;;;;;;;;;;;22.20;47.00;21.00;101037.00;;;;5085017;28;19920;-71
2022/09/25 10:02:58;;;;;;;;;;;22.30;47.00;21.00;101031.00;;;;5094908;27;19915;-71
2022/09/25 10:05:46;;;;;;;;;;;22.30;47.00;21.00;101032.00;;;;5095187;27;19915;-71
2022/09/25 10:08:33;;;;;;;;;;;22.30;47.10;21.00;101029.00;;;;5079736;28;20064;-71
2022/09/25 10:11:19;;;;;;;;;;;22.20;47.00;21.00;101029.00;;;;5076520;28;20273;-71
2022/09/25 10:14:07;;;;;;;;;;;22.30;47.00;21.00;101029.00;;;;5089611;27;19930;-71
2022/09/25 10:16:53;;;;;;;;;;;22.30;47.00;21.00;101023.00;;;;5084020;28;19920;-71
2022/09/25 10:19:59;;;;;;;;;;;22.30;47.00;21.00;101024.00;;;;5084480;27;19919;-70
2022/09/25 10:22:46;;;;;;;;;;;22.30;46.90;21.00;101015.00;;;;5106890;27;19916;-71
2022/09/25 10:25:37;;;;;;;;;;;22.30;46.90;21.00;101017.00;;;;5080401;27;19916;-70
2022/09/25 10:28:31;;;;;;;;;;;22.30;46.90;20.90;101013.00;;;;5092768;27;19915;-71
2022/09/25 10:31:17;;;;;;;;;;;22.30;46.90;20.90;101014.00;;;;5108971;27;19912;-71
2022/09/25 10:34:12;;;;;;;;;;;22.30;46.80;20.90;101011.00;;;;5097435;27;19926;-71
2022/09/25 10:36:58;;;;;;;;;;;22.30;46.80;20.90;101002.00;;;;5103801;27;19911;-71
2022/09/25 10:39:44;;;;;;;;;;;22.30;46.70;20.90;101008.00;;;;5068181;28;19948;-71
2022/09/25 10:42:38;;;;;;;;;;;22.40;46.80;20.90;101014.00;;;;5075394;28;19922;-71
2022/09/25 10:45:32;;;;;;;;;;;22.30;46.70;20.80;101003.00;;;;5081727;28;19911;-71
2022/09/25 10:51:37;;;;;;;;;;;22.30;46.80;20.80;100999.00;;;;5093091;28;20109;-71
2022/09/25 10:54:23;;;;;;;;;;;22.20;46.70;20.90;100996.00;;;;5086836;28;20167;-71
2022/09/25 10:57:37;;;;;;;;;;;22.20;46.70;20.90;101010.00;;;;5092655;27;19922;-71
2022/09/25 11:00:24;;;;;;;;;;;22.30;46.70;20.90;101004.00;;;;5071607;28;19912;-71
2022/09/25 11:03:19;;;;;;;;;;;22.30;46.80;20.90;100996.00;;;;5084100;28;19923;-71
2022/09/25 11:06:29;;;;;;;;;;;22.30;46.70;20.90;101000.00;;;;5109500;27;19977;-72
2022/09/25 11:09:16;;;;;;;;;;;22.30;46.70;20.90;101001.00;;;;5086650;27;19920;-71
2022/09/25 11:12:07;;;;;;;;;;;22.30;46.60;20.90;100992.00;;;;5084454;28;19939;-71
2022/09/25 11:15:00;;;;;;;;;;;22.30;47.20;20.90;100987.00;;;;5079287;28;19919;-71
2022/09/25 11:17:49;;;;;;;;;;;22.30;46.50;20.90;100987.00;;;;5090636;28;19916;-71
2022/09/25 11:20:35;;;;;;;;;;;22.30;46.50;20.90;100991.00;;;;5085766;28;20305;-71
2022/09/25 11:23:31;;;;;;;;;;;22.30;46.50;20.90;100981.00;;;;5082155;28;19950;-71
2022/09/25 11:26:19;;;;;;;;;;;22.30;46.50;20.90;100982.00;;;;5080892;28;19962;-71
2022/09/25 11:29:07;;;;;;;;;;;22.30;46.40;20.90;100983.00;;;;5089935;28;19966;-71
2022/09/25 11:31:58;;;;;;;;;;;22.30;46.50;20.90;100984.00;;;;5089818;28;20002;-71
2022/09/25 11:35:12;;;;;;;;;;;22.30;46.50;20.90;100984.00;;;;5102670;28;19938;-71
2022/09/25 11:38:04;;;;;;;;;;;22.30;46.50;20.90;100983.00;;;;5089218;28;20006;-71
2022/09/25 11:41:13;;;;;;;;;;;22.30;46.30;20.80;100975.00;;;;5102846;28;20420;-71
2022/09/25 11:44:21;;;;;;;;;;;22.30;46.40;20.90;100975.00;;;;5082147;28;19915;-72
2022/09/25 11:47:27;;;;;;;;;;;22.30;46.40;20.90;100978.00;;;;5082259;28;19915;-71
2022/09/25 11:50:14;;;;;;;;;;;22.30;46.50;20.90;100972.00;;;;5091408;28;19916;-71
2022/09/25 11:53:32;;;;;;;;;;;22.30;46.50;20.90;100976.00;;;;5083149;28;19915;-71
2022/09/25 11:56:27;;;;;;;;;;;22.30;46.60;20.90;100971.00;;;;5076881;28;20387;-71
2022/09/25 11:59:21;;;;;;;;;;;22.30;46.50;20.90;100971.00;;;;5086699;28;19963;-71
2022/09/25 12:02:08;;;;;;;;;;;22.30;46.50;20.90;100964.00;;;;5079126;28;20694;-71
2022/09/25 12:05:03;;;;;;;;;;;22.30;46.50;20.90;100962.00;;;;5098164;28;19912;-71
2022/09/25 12:08:12;;;;;;;;;;;22.30;46.40;20.90;100957.00;;;;5073476;28;19916;-71
2022/09/25 12:11:27;;;;;;;;;;;22.30;46.40;20.90;100956.00;;;;5095995;28;20074;-71
2022/09/25 12:14:38;;;;;;;;;;;22.30;46.30;20.90;100948.00;;;;5095237;28;19915;-71
2022/09/25 12:17:42;;;;;;;;;;;22.30;46.30;20.90;100950.00;;;;5083579;28;19958;-71
2022/09/25 12:20:37;;;;;;;;;;;22.30;46.30;20.90;100942.00;;;;5087627;28;19923;-71
2022/09/25 12:23:29;;;;;;;;;;;22.30;46.20;20.90;100938.00;;;;5077375;28;19978;-71
2022/09/25 12:26:29;;;;;;;;;;;22.30;46.20;20.90;100933.00;;;;5088213;28;19981;-71
2022/09/25 12:29:40;;;;;;;;;;;22.30;46.20;20.90;100932.00;;;;5078237;27;20383;-71
2022/09/25 12:32:46;;;;;;;;;;;22.30;46.20;20.90;100929.00;;;;5094578;27;20395;-71
2022/09/25 12:35:38;;;;;;;;;;;22.30;46.20;20.90;100926.00;;;;5094321;27;19955;-71
2022/09/25 12:38:45;;;;;;;;;;;22.30;46.20;20.90;100922.00;;;;5089029;27;20200;-71
2022/09/25 12:41:44;;;;;;;;;;;22.30;46.20;20.90;100920.00;;;;5099321;27;19916;-71
2022/09/25 12:44:49;;;;;;;;;;;22.30;46.10;20.90;100916.00;;;;5087325;28;19981;-71
2022/09/25 12:48:00;;;;;;;;;;;22.30;46.10;20.90;100910.00;;;;5094051;27;20373;-71
2022/09/25 12:51:03;;;;;;;;;;;22.30;46.10;20.90;100908.00;;;;5094689;27;20369;-71
2022/09/25 12:53:53;;;;;;;;;;;22.30;46.00;20.90;100903.00;;;;5083193;28;19924;-71
2022/09/25 12:56:55;;;;;;;;;;;22.30;46.00;20.90;100903.00;;;;5072342;28;19981;-71
2022/09/25 12:59:52;;;;;;;;;;;22.30;46.00;20.90;100905.00;;;;5095710;28;19915;-71
2022/09/25 13:02:51;;;;;;;;;;;22.40;46.00;21.00;100903.00;;;;5093836;27;19948;-71
2022/09/25 13:05:43;;;;;;;;;;;22.40;46.00;21.00;100901.00;;;;5075999;28;19922;-71
2022/09/25 13:08:53;;;;;;;;;;;22.30;46.60;21.00;100899.00;;;;5091685;27;19946;-71
2022/09/25 13:11:47;;;;;;;;;;;22.40;46.00;21.00;100904.00;;;;5082376;28;19911;-71
2022/09/25 13:14:43;;;;;;;;;;;22.40;46.00;21.00;100894.00;;;;5071888;28;19912;-71
2022/09/25 13:17:30;;;;;;;;;;;22.40;46.10;21.00;100892.00;;;;5066362;28;19927;-71
2022/09/25 13:20:25;;;;;;;;;;;22.40;46.00;21.00;100894.00;;;;5088988;28;19912;-71
2022/09/25 13:23:17;;;;;;;;;;;22.40;46.00;21.00;100884.00;;;;5096392;27;20175;-71
2022/09/25 13:26:15;;;;;;;;;;;22.40;45.90;21.00;100877.00;;;;5080567;28;19923;-71
2022/09/25 13:29:19;;;;;;;;;;;22.50;46.00;21.00;100882.00;;;;5106128;27;19923;-71
2022/09/25 13:32:11;;;;;;;;;;;22.50;45.90;21.10;100876.00;;;;5079771;28;20021;-71
2022/09/25 13:35:01;;;;;;;;;;;22.50;45.90;21.10;100869.00;;;;5109257;27;19911;-71
2022/09/25 13:37:47;;;;;;;;;;;22.50;45.90;21.10;100882.00;;;;5085153;28;19941;-71
2022/09/25 13:40:42;;;;;;;;;;;22.50;45.80;21.10;100890.00;;;;5077670;28;19916;-71
2022/09/25 13:43:28;;;;;;;;;;;22.60;45.80;21.10;100880.00;;;;5084633;27;19916;-71
2022/09/25 13:46:22;;;;;;;;;;;22.60;45.70;21.10;100887.00;;;;5090138;28;19938;-71
2022/09/25 13:49:33;;;;;;;;;;;22.60;45.80;21.10;100879.00;;;;5088946;28;19915;-71
2022/09/25 13:52:29;;;;;;;;;;;22.60;45.70;21.10;100874.00;;;;5093402;28;19951;-71
2022/09/25 13:55:21;;;;;;;;;;;22.60;45.70;21.10;100876.00;;;;5094791;28;20222;-71
2022/09/25 13:58:19;;;;;;;;;;;22.60;45.80;21.10;100873.00;;;;5109122;27;19911;-71
2022/09/25 14:01:10;;;;;;;;;;;22.70;45.80;21.20;100875.00;;;;5091794;27;20362;-71
2022/09/25 14:03:57;;;;;;;;;;;22.70;45.80;21.20;100875.00;;;;5085948;27;19970;-71
2022/09/25 14:06:44;;;;;;;;;;;22.70;45.80;21.20;100866.00;;;;5082154;27;20463;-71
2022/09/25 14:09:30;;;;;;;;;;;22.70;45.80;21.20;100861.00;;;;5080190;27;19917;-71